Time;durP1;ratioP1;P1;durP2;ratioP2;P2;SDS_P1;SDS_P2;PMS_P1;PMS_P2;Temp;Humidity;BMP_temperature;BMP_pressure;BME280_temperature;BME280_humidity;BME280_pressure;Samples;Min_cycle;Max_cycle;Signal;HPM_P1;HPM_P2
2021/03/24 00:02:26;;;;;;;8.65;3.33;;;;;;;6.01;46.02;101194.66;5020607;28;20060;-75
2021/03/24 00:05:35;;;;;;;;;;;;;;;6.01;45.80;101197.31;5022654;28;20048;-75
2021/03/24 00:08:39;;;;;;;5.95;3.28;;;;;;;5.99;45.97;101202.75;5023060;28;20368;-75
2021/03/24 00:11:44;;;;;;;6.72;3.08;;;;;;;5.99;45.84;101207.22;5025491;28;20057;-77
2021/03/24 00:14:48;;;;;;;5.78;3.00;;;;;;;6.03;45.60;101212.28;5013055;28;20056;-77
2021/03/24 00:17:53;;;;;;;4.65;2.90;;;;;;;6.03;45.82;101208.75;5022510;28;20409;-76
2021/03/24 00:21:00;;;;;;;4.40;2.53;;;;;;;6.09;45.47;101219.09;5024211;28;20056;-76
2021/03/24 00:24:05;;;;;;;4.57;2.70;;;;;;;6.08;45.82;101212.03;5024549;28;20397;-75
2021/03/24 00:27:10;;;;;;;5.35;2.95;;;;;;;6.04;45.94;101216.69;5021688;28;20048;-74
2021/03/24 00:30:18;;;;;;;6.10;2.63;;;;;;;5.97;46.17;101214.44;5022778;28;20061;-77
2021/03/24 00:33:24;;;;;;;6.32;2.55;;;;;;;5.90;46.16;101214.75;5023800;28;20064;-74
2021/03/24 00:36:29;;;;;;;5.70;2.90;;;;;;;5.85;46.16;101208.81;5023993;28;20401;-76
2021/03/24 00:39:33;;;;;;;6.60;3.05;;;;;;;5.84;46.80;101211.53;5022283;28;20489;-77
2021/03/24 00:42:36;;;;;;;;;;;;;;;5.79;46.87;101214.47;5034199;28;20048;-75
2021/03/24 00:45:41;;;;;;;5.28;2.75;;;;;;;5.76;47.00;101213.75;5023999;28;19918;-76
2021/03/24 00:48:45;;;;;;;5.95;3.00;;;;;;;5.80;46.83;101213.50;5024208;28;20044;-76
2021/03/24 00:51:49;;;;;;;9.10;2.92;;;;;;;5.72;46.83;101209.56;5021914;28;20048;-76
2021/03/24 00:54:53;;;;;;;7.55;3.72;;;;;;;5.64;47.45;101212.63;5022134;28;20421;-75
2021/03/24 00:57:58;;;;;;;4.63;2.67;;;;;;;5.59;47.45;101212.00;5023130;28;20048;-76
2021/03/24 01:01:02;;;;;;;4.90;2.58;;;;;;;5.58;47.38;101212.09;5024282;28;20052;-74
2021/03/24 01:04:08;;;;;;;4.90;2.63;;;;;;;5.54;47.82;101214.06;5022582;28;20041;-75
2021/03/24 01:07:13;;;;;;;5.80;2.90;;;;;;;5.52;47.58;101210.63;5021390;28;20049;-74
2021/03/24 01:10:25;;;;;;;4.72;2.83;;;;;;;5.49;47.62;101208.13;5021976;28;20056;-73
2021/03/24 01:13:30;;;;;;;6.07;3.05;;;;;;;5.45;48.05;101214.56;5020865;28;20045;-73
2021/03/24 01:16:35;;;;;;;10.40;3.17;;;;;;;5.41;48.05;101217.44;5021754;28;20053;-74
2021/03/24 01:19:39;;;;;;;5.95;2.60;;;;;;;5.44;48.18;101215.50;5023324;28;20044;-75
2021/03/24 01:22:44;;;;;;;6.35;2.70;;;;;;;5.38;48.50;101217.63;5023905;28;20040;-73
2021/03/24 01:25:49;;;;;;;7.85;2.72;;;;;;;5.34;48.02;101211.59;5020084;28;20045;-80
2021/03/24 01:28:59;;;;;;;6.00;3.00;;;;;;;5.32;48.22;101209.94;5021210;28;20425;-77
2021/03/24 01:32:03;;;;;;;5.60;2.70;;;;;;;5.30;48.17;101211.84;5023886;28;20508;-79
2021/03/24 01:35:08;;;;;;;5.45;2.60;;;;;;;5.26;48.75;101214.66;5019863;28;20057;-75
2021/03/24 01:38:13;;;;;;;5.47;2.78;;;;;;;5.26;48.27;101214.66;5021013;28;20053;-75
2021/03/24 01:41:19;;;;;;;4.63;2.75;;;;;;;5.21;48.77;101213.16;5008976;28;20117;-73
2021/03/24 01:44:23;;;;;;;5.57;2.97;;;;;;;5.22;48.74;101217.56;5023490;28;20048;-75
2021/03/24 01:47:29;;;;;;;4.47;2.78;;;;;;;5.19;48.74;101209.72;5019319;28;20037;-76
2021/03/24 01:50:37;;;;;;;11.27;3.10;;;;;;;5.16;48.82;101207.25;5020966;28;20057;-74
2021/03/24 01:53:42;;;;;;;3.90;2.53;;;;;;;5.18;49.16;101218.66;5023186;28;20056;-74
2021/03/24 01:56:52;;;;;;;9.50;3.33;;;;;;;5.14;49.16;101214.41;5023727;28;20048;-77
2021/03/24 01:59:56;;;;;;;5.30;2.88;;;;;;;5.07;49.13;101213.03;5021891;28;20045;-75
2021/03/24 02:03:00;;;;;;;5.68;2.92;;;;;;;5.01;49.56;101211.53;5023377;28;20061;-73
2021/03/24 02:06:26;;;;;;;5.70;2.92;;;;;;;5.00;49.83;101216.94;5027872;28;20052;-77
2021/03/24 02:09:36;;;;;;;5.60;2.72;;;;;;;4.94;50.00;101220.75;5023917;28;20044;-75
2021/03/24 02:13:09;;;;;;;9.15;2.80;;;;;;;4.90;50.02;101207.72;5027066;28;20393;-73
2021/03/24 02:16:26;;;;;;;5.80;2.40;;;;;;;4.86;49.96;101209.69;5024628;28;20056;-74
2021/03/24 02:19:44;;;;;;;5.38;2.70;;;;;;;4.84;49.92;101213.34;5023632;28;20049;-76
2021/03/24 02:23:06;;;;;;;5.95;2.83;;;;;;;4.82;50.20;101205.44;5023415;28;20049;-73
2021/03/24 02:26:25;;;;;;;5.75;3.00;;;;;;;4.84;50.09;101211.53;5023020;28;20041;-75
2021/03/24 02:29:32;;;;;;;7.10;3.10;;;;;;;4.85;50.27;101215.06;5022413;28;20152;-73
2021/03/24 02:32:43;;;;;;;9.43;3.10;;;;;;;4.82;50.30;101209.88;5024862;28;20045;-75
2021/03/24 02:35:56;;;;;;;4.50;2.50;;;;;;;4.80;50.14;101212.63;5027237;28;20048;-73
2021/03/24 02:39:05;;;;;;;5.55;2.72;;;;;;;4.81;50.49;101209.03;5026169;28;20049;-74
2021/03/24 02:42:13;;;;;;;5.25;2.88;;;;;;;4.81;50.38;101209.03;5023032;28;20519;-77
2021/03/24 02:45:45;;;;;;;5.25;2.50;;;;;;;4.83;50.43;101206.31;5024875;28;20461;-79
2021/03/24 02:48:51;;;;;;;5.80;2.85;;;;;;;4.81;50.06;101198.41;5023053;28;20045;-77
2021/03/24 02:51:55;;;;;;;6.38;2.67;;;;;;;4.77;50.52;101203.94;5024453;28;20057;-75
2021/03/24 02:55:00;;;;;;;5.15;2.97;;;;;;;4.78;50.31;101209.19;5025239;28;20060;-75
2021/03/24 02:58:05;;;;;;;4.72;2.75;;;;;;;4.75;50.67;101208.47;5026473;28;20041;-76
2021/03/24 03:01:19;;;;;;;4.32;2.40;;;;;;;4.75;50.71;101208.47;5022736;28;20041;-75
2021/03/24 03:04:34;;;;;;;5.65;2.90;;;;;;;4.72;50.54;101208.63;5025892;28;20052;-73
2021/03/24 03:07:44;;;;;;;9.07;2.72;;;;;;;4.72;50.60;101213.94;5023893;28;20501;-74
2021/03/24 03:11:19;;;;;;;4.57;2.50;;;;;;;4.68;50.87;101201.75;5024359;28;20500;-77
2021/03/24 03:14:54;;;;;;;6.25;2.80;;;;;;;4.68;51.07;101210.59;5025280;28;20064;-78
2021/03/24 03:18:07;;;;;;;7.80;2.50;;;;;;;4.75;50.93;101205.81;5023965;28;20417;-77
2021/03/24 03:21:18;;;;;;;6.83;2.47;;;;;;;4.73;51.23;101205.03;5022896;28;20049;-75
2021/03/24 03:24:26;;;;;;;5.30;2.58;;;;;;;4.73;50.87;101203.25;5025388;28;20771;-74
2021/03/24 03:27:31;;;;;;;5.95;2.95;;;;;;;4.73;51.09;101197.06;5022095;28;20049;-78
2021/03/24 03:30:38;;;;;;;7.28;2.42;;;;;;;4.71;51.24;101206.91;5023444;28;20049;-72
2021/03/24 03:33:48;;;;;;;5.53;2.75;;;;;;;4.71;51.41;101198.94;5013935;28;20117;-73
2021/03/24 03:36:55;;;;;;;5.03;2.45;;;;;;;4.71;51.34;101193.63;5022625;28;20061;-72
2021/03/24 03:40:01;;;;;;;4.55;2.30;;;;;;;4.78;51.63;101195.91;5023727;28;20101;-75
2021/03/24 03:43:08;;;;;;;5.18;2.85;;;;;;;4.77;51.46;101199.47;5023216;28;20041;-74
2021/03/24 03:46:17;;;;;;;5.93;2.50;;;;;;;4.78;51.55;101213.66;5021533;28;20492;-76
2021/03/24 03:49:22;;;;;;;5.78;2.85;;;;;;;4.78;51.57;101203.00;5023747;28;20057;-74
2021/03/24 03:52:32;;;;;;;7.68;2.72;;;;;;;4.84;51.36;101205.38;5025538;28;20053;-74
2021/03/24 03:56:00;;;;;;;9.00;2.90;;;;;;;4.82;51.25;101217.84;5023537;28;20064;-74
2021/03/24 03:59:04;;;;;;;7.68;2.65;;;;;;;4.76;51.69;101208.41;5025213;28;20048;-78
2021/03/24 04:02:14;;;;;;;6.97;2.70;;;;;;;4.71;51.54;101201.59;5023137;28;20061;-77
2021/03/24 04:05:25;;;;;;;9.25;2.50;;;;;;;4.79;51.52;101213.56;5023562;28;20049;-78
2021/03/24 04:08:33;;;;;;;9.80;3.08;;;;;;;4.75;51.40;101209.34;5021098;28;20041;-75
2021/03/24 04:11:46;;;;;;;5.00;2.42;;;;;;;4.73;51.32;101213.88;5023295;28;20053;-75
2021/03/24 04:14:52;;;;;;;4.65;2.35;;;;;;;4.71;51.51;101221.09;5021400;28;20045;-73
2021/03/24 04:18:05;;;;;;;4.68;2.53;;;;;;;4.74;51.64;101217.41;5021250;28;20053;-75
2021/03/24 04:21:11;;;;;;;9.30;2.90;;;;;;;4.76;51.64;101208.41;5024799;28;20409;-77
2021/03/24 04:24:23;;;;;;;5.53;2.80;;;;;;;4.75;51.46;101211.13;5025805;28;20072;-80
2021/03/24 04:27:34;;;;;;;5.43;2.63;;;;;;;4.75;51.82;101208.47;5021470;28;20057;-76
2021/03/24 04:30:44;;;;;;;6.10;2.78;;;;;;;4.72;51.77;101205.97;5019464;28;20065;-78
2021/03/24 04:33:49;;;;;;;4.00;2.45;;;;;;;4.73;51.77;101208.56;5018424;28;20116;-77
2021/03/24 04:37:11;;;;;;;6.63;2.97;;;;;;;4.73;51.72;101216.53;5021658;28;20507;-73
2021/03/24 04:40:55;;;;;;;5.65;2.65;;;;;;;4.68;51.90;101215.91;5020977;28;20057;-75
2021/03/24 04:44:04;;;;;;;5.85;2.63;;;;;;;4.67;52.20;101223.97;5021875;28;20037;-75
2021/03/24 04:47:15;;;;;;;5.15;2.72;;;;;;;4.62;52.14;101226.00;5024050;28;20049;-76
2021/03/24 04:50:39;;;;;;;7.55;2.72;;;;;;;4.61;52.40;101219.81;5021611;28;20405;-74
2021/03/24 04:53:50;;;;;;;4.80;2.65;;;;;;;4.64;52.21;101225.00;5022940;28;20049;-75
2021/03/24 04:57:04;;;;;;;5.82;2.53;;;;;;;4.64;52.37;101218.81;5011524;28;20114;-75
2021/03/24 05:00:25;;;;;;;6.70;2.50;;;;;;;4.57;52.82;101227.06;5024151;28;20048;-74
2021/03/24 05:03:37;;;;;;;7.00;3.35;;;;;;;4.55;52.58;101233.41;5024207;28;20095;-76
2021/03/24 05:07:13;;;;;;;4.18;2.53;;;;;;;4.61;52.58;101235.75;5021174;28;20397;-75
2021/03/24 05:10:20;;;;;;;5.72;2.63;;;;;;;4.68;52.81;101238.97;5019793;28;20493;-73
2021/03/24 05:13:39;;;;;;;5.20;2.78;;;;;;;4.66;52.82;101231.09;5023071;28;20057;-76
2021/03/24 05:16:46;;;;;;;10.73;3.10;;;;;;;4.65;52.62;101239.13;5022237;28;20358;-75
2021/03/24 05:19:56;;;;;;;5.22;2.97;;;;;;;4.66;52.81;101243.50;5013741;28;20057;-75
2021/03/24 05:23:01;;;;;;;5.80;2.80;;;;;;;4.64;53.00;101246.25;5021573;28;20060;-75
2021/03/24 05:26:21;;;;;;;9.52;3.60;;;;;;;4.65;52.72;101252.41;5021902;28;20053;-74
2021/03/24 05:29:31;;;;;;;5.13;2.92;;;;;;;4.73;52.82;101250.25;5021824;28;20061;-75
2021/03/24 05:32:41;;;;;;;6.97;3.20;;;;;;;4.78;52.93;101256.19;5019068;28;20065;-75
2021/03/24 05:35:56;;;;;;;8.63;3.15;;;;;;;4.88;52.65;101262.78;5021726;28;20053;-76
2021/03/24 05:39:29;;;;;;;7.18;3.00;;;;;;;5.05;52.20;101261.00;5010559;28;20045;-76
2021/03/24 05:42:46;;;;;;;6.55;3.20;;;;;;;5.18;51.81;101270.06;5023887;28;20048;-76
2021/03/24 05:46:03;;;;;;;15.30;3.90;;;;;;;5.31;51.88;101267.63;5023303;28;20053;-74
2021/03/24 05:49:56;;;;;;;10.95;3.50;;;;;;;5.44;51.28;101265.19;5023002;28;20488;-74
2021/03/24 05:53:35;;;;;;;11.50;3.63;;;;;;;5.59;50.76;101270.59;4979987;28;20050;-75
2021/03/24 05:57:11;;;;;;;8.13;3.42;;;;;;;5.70;50.64;101272.72;4979639;28;20057;-75
2021/03/24 06:00:32;;;;;;;12.02;4.05;;;;;;;5.92;50.16;101277.78;4965286;28;20058;-75
2021/03/24 06:03:52;;;;;;;12.43;3.47;;;;;;;6.06;49.75;101281.41;4971161;28;20138;-74
2021/03/24 06:07:10;;;;;;;13.60;4.20;;;;;;;6.24;49.56;101269.75;4982584;28;20045;-76
2021/03/24 06:10:23;;;;;;;13.25;3.10;;;;;;;6.39;48.97;101276.03;4980305;28;20134;-75
2021/03/24 06:13:49;;;;;;;64.93;44.30;;;;;;;6.51;48.88;101280.69;4980949;28;20565;-75
2021/03/24 06:16:59;;;;;;;45.72;25.63;;;;;;;6.60;48.71;101280.16;4982209;28;20050;-75
2021/03/24 06:20:24;;;;;;;7.35;3.95;;;;;;;6.80;48.09;101287.88;4972894;28;20054;-75
2021/03/24 06:23:38;;;;;;;7.97;3.25;;;;;;;7.15;47.53;101283.16;5008742;28;20045;-75
2021/03/24 06:27:09;;;;;;;10.43;3.50;;;;;;;7.35;47.27;101279.31;5021129;28;20045;-73
2021/03/24 06:30:51;;;;;;;10.05;3.35;;;;;;;7.42;47.55;101278.00;5023690;28;20049;-77
2021/03/24 06:34:15;;;;;;;5.65;3.47;;;;;;;7.61;46.86;101292.81;5019138;28;20049;-77
2021/03/24 06:37:45;;;;;;;7.90;3.65;;;;;;;8.18;45.54;101287.50;5020124;28;20049;-78
2021/03/24 06:41:37;;;;;;;9.68;4.57;;;;;;;8.49;44.83;101290.81;5012413;28;20053;-76
2021/03/24 06:45:04;;;;;;;6.97;3.40;;;;;;;8.46;44.85;101288.38;5002966;28;20049;-75
2021/03/24 06:48:27;;;;;;;13.98;4.18;;;;;;;8.81;44.79;101287.91;5006807;28;20045;-74
2021/03/24 06:52:08;;;;;;;6.55;3.47;;;;;;;8.84;44.50;101295.72;5003017;28;20049;-75
2021/03/24 06:55:37;;;;;;;9.45;3.78;;;;;;;9.09;44.32;101294.00;5014402;28;20057;-75
2021/03/24 06:59:09;;;;;;;11.65;4.25;;;;;;;9.14;44.26;101294.53;5016618;28;20401;-75
2021/03/24 07:02:35;;;;;;;10.35;4.40;;;;;;;9.48;43.90;101303.00;5010015;28;20053;-75
2021/03/24 07:06:05;;;;;;;10.95;4.18;;;;;;;9.28;44.34;101307.03;5008037;28;20057;-75
2021/03/24 07:09:30;;;;;;;9.52;4.07;;;;;;;9.66;43.86;101315.97;5015449;28;20057;-75
2021/03/24 07:12:59;;;;;;;9.60;3.70;;;;;;;10.57;41.83;101305.97;5016057;28;20056;-75
2021/03/24 07:16:18;;;;;;;6.22;3.45;;;;;;;10.80;41.40;101313.22;5016100;28;20053;-73
2021/03/24 07:19:42;;;;;;;9.30;4.30;;;;;;;10.92;41.15;101323.91;5015256;28;20061;-73
2021/03/24 07:23:24;;;;;;;9.18;3.78;;;;;;;11.97;39.35;101323.97;5015842;28;20049;-75
2021/03/24 07:26:54;;;;;;;10.13;3.40;;;;;;;13.62;35.90;101330.09;5014735;28;20061;-76
2021/03/24 07:29:59;;;;;;;8.45;3.53;;;;;;;13.96;35.96;101318.13;5013953;28;20384;-76
2021/03/24 07:33:11;;;;;;;7.47;4.13;;;;;;;14.75;34.03;101314.69;5002916;28;20393;-77
2021/03/24 07:36:41;;;;;;;11.27;4.38;;;;;;;13.88;35.69;101319.75;5014569;28;20064;-76
2021/03/24 07:40:10;;;;;;;9.32;4.22;;;;;;;14.25;35.18;101316.44;4996992;28;20048;-80
2021/03/24 07:43:23;;;;;;;9.50;4.57;;;;;;;17.49;30.27;101309.81;5022132;28;20061;-75
2021/03/24 07:46:58;;;;;;;8.73;4.40;;;;;;;23.30;22.83;101304.63;5021521;28;20409;-83
2021/03/24 07:50:43;;;;;;;14.27;5.38;;;;;;;28.96;17.45;101300.38;5014504;28;20053;-83
2021/03/24 07:54:11;;;;;;;11.65;4.07;;;;;;;32.86;14.68;101294.72;5013105;28;20170;-87
2021/03/24 07:57:40;;;;;;;5.90;3.55;;;;;;;34.48;13.31;101299.97;5015538;28;20060;-83
2021/03/24 08:00:57;;;;;;;6.82;4.00;;;;;;;37.56;12.14;101289.69;5003281;28;20121;-83
2021/03/24 08:04:25;;;;;;;9.77;4.18;;;;;;;39.18;10.42;101297.38;5014220;28;20366;-83
2021/03/24 08:07:54;;;;;;;9.50;4.10;;;;;;;37.92;11.77;101296.72;5009554;28;20049;-81
2021/03/24 08:11:08;;;;;;;10.98;4.75;;;;;;;39.03;10.99;101302.03;5000117;28;20073;-77
2021/03/24 08:14:27;;;;;;;7.63;4.07;;;;;;;39.26;11.00;101308.75;5015300;28;20053;-80
2021/03/24 08:17:54;;;;;;;8.10;4.70;;;;;;;38.73;10.55;101304.38;5014616;28;20049;-80
2021/03/24 08:21:13;;;;;;;9.05;5.15;;;;;;;39.50;10.41;101308.72;5001831;28;20057;-80
2021/03/24 08:24:41;;;;;;;7.72;4.75;;;;;;;39.13;10.90;101303.03;5003222;28;20048;-83
2021/03/24 08:28:03;;;;;;;13.70;4.60;;;;;;;38.53;10.80;101305.41;5020643;28;20053;-80
2021/03/24 08:31:39;;;;;;;7.57;4.90;;;;;;;39.93;10.84;101301.00;4995120;28;20070;-83
2021/03/24 08:35:06;;;;;;;14.18;5.15;;;;;;;39.10;10.68;101293.22;4994181;28;20050;-85
2021/03/24 08:38:19;;;;;;;10.05;5.10;;;;;;;36.60;12.42;101306.06;4994927;28;20049;-88
2021/03/24 08:41:44;;;;;;;13.05;4.93;;;;;;;41.56;10.19;101301.13;4993856;28;20057;-83
2021/03/24 08:45:01;;;;;;;17.42;5.15;;;;;;;42.63;10.19;101303.75;5031851;28;20140;-87
2021/03/24 08:48:11;;;;;;;10.80;4.43;;;;;;;42.63;10.11;101298.09;5004844;28;20045;-83
2021/03/24 08:51:56;;;;;;;11.23;5.70;;;;;;;39.94;10.70;101297.91;5014731;28;20056;-79
2021/03/24 08:55:23;;;;;;;11.00;5.28;;;;;;;39.55;10.67;101297.38;4973075;28;20053;-80
2021/03/24 08:58:32;;;;;;;11.50;5.40;;;;;;;40.87;10.29;101308.84;4971006;28;20506;-78
2021/03/24 09:01:49;;;;;;;9.98;5.13;;;;;;;39.71;11.21;101304.47;5008568;28;20060;-79
2021/03/24 09:05:22;;;;;;;14.35;6.20;;;;;;;38.81;11.13;101307.38;4994562;28;20065;-82
2021/03/24 09:08:49;;;;;;;16.13;5.90;;;;;;;39.08;11.85;101298.31;5004963;28;20049;-76
2021/03/24 09:12:19;;;;;;;16.00;5.90;;;;;;;39.00;11.51;101302.63;4972261;28;20578;-79
2021/03/24 09:15:34;;;;;;;11.50;5.60;;;;;;;36.60;12.12;101306.06;5005681;28;20053;-80
2021/03/24 09:18:50;;;;;;;13.23;6.20;;;;;;;35.43;13.54;101304.34;5010995;28;20188;-76
2021/03/24 09:22:37;;;;;;;15.90;6.45;;;;;;;30.37;16.22;101311.66;5007958;28;20073;-83
2021/03/24 09:25:55;;;;;;;20.25;7.35;;;;;;;25.56;20.99;101310.38;5010171;28;20053;-84
2021/03/24 09:29:11;;;;;;;15.90;7.47;;;;;;;24.13;22.73;101311.34;5001895;28;20053;-84
2021/03/24 09:32:21;;;;;;;16.38;8.73;;;;;;;22.13;25.45;101319.38;5033219;28;20067;-82
2021/03/24 09:36:02;;;;;;;14.75;7.75;;;;;;;20.67;27.24;101316.75;5032778;28;20060;-81
2021/03/24 09:39:17;;;;;;;15.02;7.30;;;;;;;20.37;27.44;101315.66;5032761;28;20052;-81
2021/03/24 09:42:33;;;;;;;22.50;8.38;;;;;;;19.25;29.52;101319.22;5027215;28;20052;-83
2021/03/24 09:45:38;;;;;;;17.35;7.93;;;;;;;18.04;31.74;101322.19;5004180;28;20064;-80
2021/03/24 09:48:48;;;;;;;14.95;7.75;;;;;;;17.92;31.32;101319.91;4993454;28;20057;-82
2021/03/24 09:52:21;;;;;;;16.35;8.25;;;;;;;17.51;32.32;101327.66;4993753;28;20054;-81
2021/03/24 09:55:32;;;;;;;11.45;8.20;;;;;;;17.15;31.77;101309.66;4992893;28;20049;-81
2021/03/24 09:59:01;;;;;;;11.18;7.90;;;;;;;17.20;33.02;101307.34;4993375;28;20457;-83
2021/03/24 10:02:24;;;;;;;11.18;8.18;;;;;;;17.09;32.46;101310.28;4996075;28;20057;-78
2021/03/24 10:05:50;;;;;;;13.45;8.75;;;;;;;16.54;33.37;101308.59;5010998;28;20061;-80
2021/03/24 10:09:10;;;;;;;13.93;8.73;;;;;;;16.89;33.24;101306.81;5009759;28;20049;-79
2021/03/24 10:12:30;;;;;;;17.63;9.30;;;;;;;16.71;32.90;101302.38;5012335;28;20048;-77
2021/03/24 10:15:37;;;;;;;16.52;9.07;;;;;;;16.74;32.48;101304.78;5023755;28;20045;-75
2021/03/24 10:18:55;;;;;;;13.55;8.38;;;;;;;17.00;32.36;101303.06;5022900;28;20401;-84
2021/03/24 10:22:11;;;;;;;12.18;8.75;;;;;;;17.10;32.07;101303.84;5012322;28;20061;-77
2021/03/24 10:25:27;;;;;;;14.00;9.00;;;;;;;17.00;32.09;101294.06;5016983;28;20057;-82
2021/03/24 10:28:43;;;;;;;18.17;9.15;;;;;;;16.91;32.19;101298.56;5016449;28;20062;-75
2021/03/24 10:31:53;;;;;;;12.07;9.02;;;;;;;17.04;31.26;101292.75;5016855;28;20397;-78
2021/03/24 10:35:18;;;;;;;13.68;10.05;;;;;;;16.90;30.78;101286.00;5015718;28;20512;-78
2021/03/24 10:38:22;;;;;;;;;;;;;;;16.75;31.14;101290.22;5012388;28;20041;-81
2021/03/24 10:41:29;;;;;;;15.27;10.50;;;;;;;16.59;30.64;101287.31;5016241;28;19921;-78
2021/03/24 10:44:46;;;;;;;13.05;9.68;;;;;;;16.54;30.57;101289.63;5007239;28;20462;-81
2021/03/24 10:48:06;;;;;;;21.23;11.20;;;;;;;16.72;31.78;101279.66;5011777;28;20512;-78
2021/03/24 10:51:21;;;;;;;12.77;10.18;;;;;;;16.39;31.39;101272.97;5016183;28;20041;-81
2021/03/24 10:54:30;;;;;;;16.70;10.85;;;;;;;16.53;30.89;101268.94;5016101;28;20421;-79
2021/03/24 10:57:47;;;;;;;16.70;10.73;;;;;;;16.34;30.75;101261.75;5015845;28;20370;-80
2021/03/24 11:01:15;;;;;;;13.13;10.73;;;;;;;16.52;30.76;101262.66;5015239;28;20050;-76
2021/03/24 11:05:00;;;;;;;14.27;11.65;;;;;;;16.67;29.60;101263.88;5015811;28;20050;-78
2021/03/24 11:08:25;;;;;;;14.60;12.23;;;;;;;16.62;29.39;101254.47;5018414;28;20037;-79
2021/03/24 11:11:44;;;;;;;18.35;11.98;;;;;;;16.62;30.14;101249.91;5023014;28;20393;-77
2021/03/24 11:15:04;;;;;;;16.55;12.20;;;;;;;16.61;29.55;101248.22;5016273;28;20046;-80
2021/03/24 11:18:12;;;;;;;16.25;11.68;;;;;;;16.53;30.08;101249.97;5015817;28;20050;-81
2021/03/24 11:21:22;;;;;;;21.13;12.05;;;;;;;16.38;31.40;101240.59;5015082;28;20034;-82
2021/03/24 11:24:52;;;;;;;16.13;12.20;;;;;;;16.57;31.55;101240.53;5015413;28;20429;-81
2021/03/24 11:28:19;;;;;;;17.85;11.57;;;;;;;16.67;31.26;101235.91;5015776;28;20146;-82
2021/03/24 11:31:56;;;;;;;17.10;11.60;;;;;;;16.60;31.41;101227.53;5015333;28;20038;-81
2021/03/24 11:35:17;;;;;;;15.60;10.80;;;;;;;16.87;31.43;101229.34;5015038;28;20046;-80
2021/03/24 11:38:46;;;;;;;15.82;12.75;;;;;;;16.88;29.87;101222.94;5014058;28;20042;-79
2021/03/24 11:41:52;;;;;;;15.65;12.85;;;;;;;16.92;29.41;101218.88;5015491;28;20034;-83
2021/03/24 11:44:56;;;;;;;17.23;12.55;;;;;;;16.90;29.54;101210.91;5014837;28;20034;-81
2021/03/24 11:48:25;;;;;;;19.58;13.68;;;;;;;16.95;29.65;101205.03;5015332;28;20046;-82
2021/03/24 11:51:42;;;;;;;18.80;14.13;;;;;;;16.65;29.82;101199.97;5014486;28;20054;-83
2021/03/24 11:55:15;;;;;;;20.50;15.43;;;;;;;16.34;30.02;101196.72;5020793;28;20038;-83
2021/03/24 11:58:30;;;;;;;15.32;13.05;;;;;;;16.28;30.50;101197.28;5017616;28;20049;-79
2021/03/24 12:01:44;;;;;;;20.60;15.10;;;;;;;16.44;29.88;101192.09;5014405;28;20050;-78
2021/03/24 12:05:29;;;;;;;18.13;14.38;;;;;;;16.43;30.09;101181.38;5003314;28;20068;-79
2021/03/24 12:08:39;;;;;;;;;;;;;;;16.28;30.21;101175.63;5015158;28;20046;-76
2021/03/24 12:11:43;;;;;;;20.27;15.10;;;;;;;16.23;30.17;101170.66;5017607;28;19917;-76
2021/03/24 12:15:05;;;;;;;17.88;15.07;;;;;;;16.26;30.80;101166.81;5015296;28;20049;-77
2021/03/24 12:18:18;;;;;;;21.40;13.80;;;;;;;16.21;30.82;101159.13;5014252;28;20042;-78
2021/03/24 12:21:30;;;;;;;17.77;14.57;;;;;;;16.28;30.58;101149.38;5003986;28;20038;-78
2021/03/24 12:24:39;;;;;;;19.45;14.75;;;;;;;16.23;30.47;101149.00;5014485;28;20429;-78
2021/03/24 12:27:47;;;;;;;23.00;14.85;;;;;;;16.43;30.87;101148.88;5014108;28;20037;-77
2021/03/24 12:30:53;;;;;;;29.38;15.95;;;;;;;16.47;30.90;101140.25;5018948;28;20403;-76
2021/03/24 12:34:02;;;;;;;20.98;15.73;;;;;;;16.55;31.18;101139.53;5021530;28;20049;-78
2021/03/24 12:37:20;;;;;;;25.08;16.65;;;;;;;16.66;30.79;101126.63;5000165;28;20037;-81
2021/03/24 12:40:25;;;;;;;20.30;16.50;;;;;;;16.60;30.54;101131.78;5025218;28;20045;-75
2021/03/24 12:43:35;;;;;;;21.50;16.95;;;;;;;16.41;30.79;101132.78;5024690;28;20049;-77
2021/03/24 12:46:49;;;;;;;20.60;16.42;;;;;;;16.47;31.03;101115.88;5017779;28;20038;-80
2021/03/24 12:50:16;;;;;;;20.83;15.98;;;;;;;16.52;30.59;101118.16;5006922;28;20034;-84
2021/03/24 12:53:39;;;;;;;25.33;15.85;;;;;;;16.53;30.65;101111.75;5007482;28;20053;-74
2021/03/24 12:57:08;;;;;;;21.90;15.60;;;;;;;16.48;30.74;101105.91;5002600;28;20042;-75
2021/03/24 13:00:18;;;;;;;18.42;15.40;;;;;;;16.59;30.27;101106.53;5008420;28;20474;-75
2021/03/24 13:03:44;;;;;;;21.92;16.83;;;;;;;16.60;30.71;101105.53;5001383;28;20041;-75
2021/03/24 13:06:51;;;;;;;21.55;17.60;;;;;;;16.59;29.99;101089.44;5003499;28;20050;-76
2021/03/24 13:10:13;;;;;;;23.15;17.35;;;;;;;16.56;29.74;101095.19;5003756;28;20041;-76
2021/03/24 13:13:52;;;;;;;21.08;16.00;;;;;;;16.69;30.31;101087.50;5007848;28;20045;-77
2021/03/24 13:17:03;;;;;;;24.33;18.55;;;;;;;16.78;29.79;101083.84;5011148;28;20034;-80
2021/03/24 13:20:27;;;;;;;23.38;17.63;;;;;;;16.83;29.66;101081.53;5004525;28;20046;-74
2021/03/24 13:23:54;;;;;;;21.45;17.20;;;;;;;16.78;30.06;101075.72;5004061;28;20042;-75
2021/03/24 13:27:23;;;;;;;21.80;17.13;;;;;;;16.82;30.06;101071.66;5002166;28;20041;-75
2021/03/24 13:30:43;;;;;;;26.08;17.63;;;;;;;16.84;30.12;101070.50;5002606;28;21628;-77
2021/03/24 13:34:06;;;;;;;19.58;17.08;;;;;;;16.89;30.48;101070.88;5006089;28;20058;-75
2021/03/24 13:37:24;;;;;;;70.85;20.63;;;;;;;16.85;29.78;101065.94;5010565;28;20041;-76
2021/03/24 13:40:36;;;;;;;77.15;23.75;;;;;;;16.90;29.42;101058.19;5001545;28;20029;-80
2021/03/24 13:43:52;;;;;;;24.05;18.77;;;;;;;17.03;29.28;101050.50;5009709;28;20401;-78
2021/03/24 13:47:03;;;;;;;22.13;17.42;;;;;;;17.06;29.78;101046.59;5012537;28;20034;-80
2021/03/24 13:50:25;;;;;;;23.17;18.05;;;;;;;17.06;30.60;101039.28;5013124;28;20034;-79
2021/03/24 13:53:48;;;;;;;26.00;19.17;;;;;;;17.01;30.27;101038.09;5022090;28;20137;-79
2021/03/24 13:57:04;;;;;;;22.33;18.85;;;;;;;16.89;29.57;101032.91;5032233;28;20042;-80
2021/03/24 14:00:33;;;;;;;22.50;17.58;;;;;;;16.89;29.76;101029.34;5032819;28;20053;-81
2021/03/24 14:03:58;;;;;;;27.00;16.42;;;;;;;16.96;31.01;101025.00;5000954;28;20425;-74
2021/03/24 14:07:12;;;;;;;23.05;16.42;;;;;;;16.91;31.77;101016.50;5005280;28;20046;-80
2021/03/24 14:10:30;;;;;;;23.55;18.02;;;;;;;16.98;30.51;101014.84;5008060;28;20049;-79
2021/03/24 14:13:58;;;;;;;19.67;16.92;;;;;;;16.95;31.40;101025.16;5011654;28;20509;-80
2021/03/24 14:17:03;;;;;;;21.40;17.65;;;;;;;16.86;31.07;101018.84;5013126;28;20409;-81
2021/03/24 14:20:30;;;;;;;24.95;18.70;;;;;;;16.88;30.29;101016.81;5012931;28;20041;-80
2021/03/24 14:23:48;;;;;;;24.25;19.83;;;;;;;16.91;30.51;101013.78;5012824;28;20412;-78
2021/03/24 14:27:03;;;;;;;26.45;19.55;;;;;;;16.83;30.55;101011.88;5012361;28;20398;-83
2021/03/24 14:30:21;;;;;;;20.83;18.25;;;;;;;16.93;30.50;101011.78;4993001;28;20038;-77
2021/03/24 14:33:34;;;;;;;24.83;18.95;;;;;;;16.97;30.47;101001.44;5000578;28;20049;-79
2021/03/24 14:36:47;;;;;;;25.70;18.08;;;;;;;17.03;29.79;101003.53;5012925;28;20050;-78
2021/03/24 14:40:13;;;;;;;24.13;18.90;;;;;;;17.03;29.50;100998.09;5011833;28;20046;-75
2021/03/24 14:43:36;;;;;;;23.40;19.40;;;;;;;16.97;30.10;100999.59;5012491;28;20425;-78
2021/03/24 14:46:55;;;;;;;21.70;19.35;;;;;;;16.90;30.68;100999.38;5012686;28;20050;-75
2021/03/24 14:50:15;;;;;;;28.25;20.55;;;;;;;16.81;30.29;100991.34;5013421;28;20038;-81
2021/03/24 14:53:24;;;;;;;26.95;20.15;;;;;;;16.85;31.37;100990.88;5012421;28;20054;-77
2021/03/24 14:56:39;;;;;;;23.80;19.13;;;;;;;16.91;31.34;100986.69;5022547;28;20046;-79
2021/03/24 14:59:44;;;;;;;25.70;20.55;;;;;;;16.84;30.96;100982.88;5009443;28;20045;-81
2021/03/24 15:02:48;;;;;;;24.77;19.35;;;;;;;16.81;30.97;100978.63;5012257;28;20202;-79
2021/03/24 15:06:03;;;;;;;26.55;19.48;;;;;;;16.82;30.51;100968.63;5012616;28;20046;-80
2021/03/24 15:09:11;;;;;;;25.50;19.67;;;;;;;16.67;30.82;100968.38;5010225;28;20046;-77
2021/03/24 15:12:36;;;;;;;27.58;21.33;;;;;;;16.69;30.84;100973.66;5015364;28;20049;-81
2021/03/24 15:16:22;;;;;;;27.08;21.08;;;;;;;16.73;30.73;100964.19;5016381;28;20046;-84